Avon, SD

7:19 PM CDT on August 31, 2015 (GMT -0500)
Hajek Farms | | Change Station
CLOSE
Current Station
Personal Weather Station
Location: Tyndall, SD
Elevation: 1378 ft
Nearby Weather Stations

Elev 1378 ft 42.97 °N, 97.92 °W | Updated 9 minutes ago

Clear
Clear
81.2 °F
Feels Like 86 °F
N
4.0
Wind Variable Wind from South
Gusts 7.0 mph

Today
High -- | Low -- °F
--% Chance of Precip.
Yesterday
High -- | Low -- °F
Precip. -- in
6:55 AM 8:09 PM
Waning Gibbous, 93% visible
Pressure 29.84 in
Visibility 10.0 miles
Clouds Clear
Heat Index 86 °F
Dew Point 72 °F
Humidity 73%
Rainfall 0.00 in
Snow Depth Not available.
UV 0 out of 12
Pollen 10.80 out of 12
Air Quality Not available.
Flu Activity Not available.
METAR KYKN 010015Z AUTO 16008KT 10SM CLR 28/20 A2984 RMK AO1
Pressure 29.84 in
Visibility 10.0 miles
Clouds Clear
Heat Index 86 °F
Dew Point 72 °F
Humidity 73%
Rainfall 0.00 in
Snow Depth Not available.
UV 0 out of 12
Pollen 10.80 out of 12
Air Quality Not available.
Flu Activity Not available.
METAR KYKN 010015Z AUTO 16008KT 10SM CLR 28/20 A2984 RMK AO1

10-Day Weather Forecast

×

Almanac

Astronomy

Aug. 31, 2015 Rise Set
Actual Time
Civil Twilight
Nautical Twilight
Astronomical Twilight
Moon
Length of Visible Light
Length of Day
Tomorrow will be .
, % of the Moon is Illuminated

Today's Extremes

State Highs State Lows

Community

WunderPhotos

Upload Photos

1,851,403 photos uploaded!

WunderBlogs® & News

Nearby

Air Quality

  Air Quality AQ Index Pollutant
Not available.

Snow Depth

Station Depth Elevation

Earthquake Activity

City Distance Mag. Time & Date
Minimum magnitude displayed is 2.5.

Coastal Water Temperatures

Place Temperature

Stations

Nearby Weather Stations

Station Location Temp. Windchill Dew Point Humidity Wind Precip. Elev Updated Type